Time;durP1;ratioP1;P1;durP2;ratioP2;P2;SDS_P1;SDS_P2;PMS_P1;PMS_P2;Temp;Humidity;BMP_temperature;BMP_pressure;BME280_temperature;BME280_humidity;BME280_pressure;Samples;Min_cycle;Max_cycle;Signal;HPM_P1;HPM_P2
2022/11/21 00:04:02;;;;;;;6.10;1.00;;;6.40;28.30;;;;;;5081550;28;20911;-86
2022/11/21 00:06:32;;;;;;;4.83;1.10;;;6.40;22.60;;;;;;5087396;28;20441;-87
2022/11/21 00:15:43;;;;;;;2.83;1.10;;;6.30;14.70;;;;;;5079065;28;20431;-86
2022/11/21 00:18:15;;;;;;;3.77;0.70;;;6.30;13.40;;;;;;5076668;28;21007;-86
2022/11/21 00:21:26;;;;;;;2.60;0.83;;;6.30;12.90;;;;;;5080585;28;20428;-86
2022/11/21 00:27:14;;;;;;;5.87;0.90;;;6.30;8.90;;;;;;5077826;28;20398;-86
2022/11/21 00:33:01;;;;;;;0.90;0.80;;;6.30;7.40;;;;;;5086840;28;20195;-86
2022/11/21 00:35:32;;;;;;;1.40;0.80;;;6.30;4.80;;;;;;5076015;28;20504;-85
2022/11/21 00:38:38;;;;;;;3.03;0.60;;;6.30;3.90;;;;;;5077678;28;20179;-87
2022/11/21 00:41:44;;;;;;;2.70;0.70;;;6.30;4.00;;;;;;5086852;28;20407;-88
2022/11/21 00:47:32;;;;;;;5.20;0.70;;;6.30;3.50;;;;;;5078673;28;20416;-87
2022/11/21 00:53:56;;;;;;;3.27;0.70;;;6.30;2.40;;;;;;5082389;28;20192;-86
2022/11/21 00:56:22;;;;;;;6.07;1.00;;;6.30;2.90;;;;;;5080699;28;20456;-85
2022/11/21 00:58:56;;;;;;;1.57;0.63;;;6.40;3.60;;;;;;5091715;28;20637;-86
2022/11/21 01:02:09;;;;;;;2.97;0.93;;;6.40;3.30;;;;;;5079800;28;20169;-86
2022/11/21 01:11:50;;;;;;;2.60;0.93;;;6.40;1.00;;;;;;5075504;28;20415;-86
2022/11/21 01:14:27;;;;;;;2.80;1.03;;;6.40;1.00;;;;;;5083219;28;20504;-86
2022/11/21 01:16:52;;;;;;;2.10;0.60;;;6.40;1.00;;;;;;5082677;28;20465;-86
2022/11/21 01:23:08;;;;;;;2.93;1.00;;;6.50;1.00;;;;;;5078431;28;20209;-86
2022/11/21 01:25:39;;;;;;;2.43;1.13;;;6.40;1.00;;;;;;5074640;28;20464;-86
2022/11/21 01:28:22;;;;;;;3.73;0.90;;;6.40;1.00;;;;;;5086632;28;20923;-86
2022/11/21 01:31:15;;;;;;;4.57;0.90;;;6.40;1.00;;;;;;5085064;28;20423;-86
2022/11/21 01:34:26;;;;;;;2.93;0.90;;;6.40;1.00;;;;;;5087015;28;20413;-85
2022/11/21 01:37:09;;;;;;;2.27;0.80;;;6.50;1.00;;;;;;5090413;28;20449;-85
2022/11/21 01:39:39;;;;;;;6.23;1.10;;;6.50;1.00;;;;;;5089089;28;20404;-85
2022/11/21 01:42:26;;;;;;;5.90;1.10;;;6.50;1.10;;;;;;5088391;28;20978;-87
2022/11/21 01:45:38;;;;;;;3.00;1.30;;;6.60;2.20;;;;;;5092335;28;20449;-87
2022/11/21 01:48:44;;;;;;;6.33;1.60;;;6.60;2.80;;;;;;5080310;28;20522;-87
2022/11/21 01:51:47;;;;;;;1.93;1.20;;;6.70;3.20;;;;;;5079023;28;20412;-86
2022/11/21 01:57:56;;;;;;;12.52;1.98;;;6.60;6.00;;;;;;5079890;28;20489;-87
2022/11/21 02:00:30;;;;;;;8.03;2.00;;;6.70;4.80;;;;;;5091792;28;20215;-85
2022/11/21 02:06:36;;;;;;;6.50;1.53;;;6.60;6.90;;;;;;5079732;28;20898;-87
2022/11/21 02:09:27;;;;;;;5.47;1.60;;;6.60;7.30;;;;;;5078007;28;20420;-86
2022/11/21 02:12:03;;;;;;;7.67;2.10;;;6.70;8.00;;;;;;5082237;28;20470;-87
2022/11/21 02:14:42;;;;;;;6.47;2.13;;;6.60;8.20;;;;;;5076232;28;20425;-86
2022/11/21 02:21:04;;;;;;;7.27;1.63;;;6.50;10.80;;;;;;5078600;28;20403;-87
2022/11/21 02:24:08;;;;;;;8.73;1.70;;;6.50;13.30;;;;;;5073422;28;20432;-86
2022/11/21 02:26:57;;;;;;;11.10;1.80;;;6.50;16.70;;;;;;5084939;28;20454;-87
2022/11/21 02:29:44;;;;;;;7.70;1.60;;;6.60;15.60;;;;;;5094198;28;20452;-86
2022/11/21 02:32:37;;;;;;;7.33;2.00;;;6.60;14.80;;;;;;5091389;28;20429;-85
2022/11/21 02:35:56;;;;;;;5.70;1.70;;;6.60;13.30;;;;;;5082120;28;21004;-85
2022/11/21 02:39:08;;;;;;;6.30;2.30;;;6.50;13.20;;;;;;5084785;28;20479;-85
2022/11/21 02:48:38;;;;;;;5.63;2.03;;;6.50;10.90;;;;;;5080523;28;20448;-86
2022/11/21 02:51:32;;;;;;;8.03;2.07;;;6.40;8.40;;;;;;5089249;28;20416;-86
2022/11/21 02:57:20;;;;;;;4.83;1.50;;;6.30;10.80;;;;;;5083776;28;20463;-88
2022/11/21 03:00:03;;;;;;;5.87;2.10;;;6.40;9.50;;;;;;5090692;28;20440;-87
2022/11/21 03:06:26;;;;;;;11.90;2.77;;;6.30;8.50;;;;;;5077208;28;20479;-86
2022/11/21 03:09:26;;;;;;;12.83;2.30;;;6.30;7.30;;;;;;5077153;28;20447;-86
2022/11/21 03:12:26;;;;;;;10.73;2.80;;;6.40;5.10;;;;;;5098544;28;20444;-86
2022/11/21 03:14:57;;;;;;;9.03;1.90;;;6.30;4.70;;;;;;5093147;28;20433;-86
2022/11/21 03:17:57;;;;;;;11.37;2.00;;;6.30;5.30;;;;;;5088398;28;20491;-85
2022/11/21 03:20:33;;;;;;;8.43;2.30;;;6.30;4.90;;;;;;5095403;28;20404;-85
2022/11/21 03:23:03;;;;;;;13.07;2.93;;;6.40;2.70;;;;;;5080321;28;20440;-85
2022/11/21 03:25:50;;;;;;;12.50;2.23;;;6.50;1.00;;;;;;5081855;28;20951;-87
2022/11/21 03:28:44;;;;;;;6.57;1.83;;;6.40;1.00;;;;;;5082663;28;20421;-87
2022/11/21 03:31:27;;;;;;;15.67;2.53;;;6.40;1.00;;;;;;5088877;28;20419;-86
2022/11/21 03:34:26;;;;;;;10.30;1.73;;;6.50;1.00;;;;;;5079743;28;20444;-87
2022/11/21 03:37:26;;;;;;;8.97;1.83;;;6.50;1.00;;;;;;5087460;28;20555;-86
2022/11/21 03:40:26;;;;;;;9.20;2.63;;;6.50;1.00;;;;;;5083763;28;20421;-86
2022/11/21 03:43:26;;;;;;;5.10;1.73;;;6.50;1.00;;;;;;5085754;28;20436;-86
2022/11/21 03:45:52;;;;;;;9.13;2.30;;;6.40;1.00;;;;;;5092085;28;20431;-86
2022/11/21 03:48:27;;;;;;;12.17;2.63;;;6.40;1.00;;;;;;5078855;28;20433;-87
2022/11/21 03:50:52;;;;;;;10.70;2.00;;;6.40;1.00;;;;;;5086104;28;20663;-87
2022/11/21 03:53:56;;;;;;;6.67;1.70;;;6.40;1.00;;;;;;5086510;28;20421;-87
2022/11/21 03:56:56;;;;;;;17.03;2.17;;;6.40;1.00;;;;;;5088568;28;20732;-87
2022/11/21 03:59:56;;;;;;;4.90;1.63;;;6.40;1.00;;;;;;5081189;28;20416;-86
2022/11/21 04:06:03;;;;;;;5.57;1.90;;;6.40;1.00;;;;;;5076379;28;20439;-86
2022/11/21 04:08:28;;;;;;;4.47;1.57;;;6.50;1.00;;;;;;5092814;28;20463;-86
2022/11/21 04:11:38;;;;;;;7.20;1.83;;;6.50;1.00;;;;;;5094238;28;20416;-86
2022/11/21 04:14:56;;;;;;;13.03;1.57;;;6.60;1.00;;;;;;5080882;28;20183;-89
2022/11/21 04:17:56;;;;;;;7.17;1.77;;;6.60;1.00;;;;;;5077595;28;20467;-87
2022/11/21 04:20:27;;;;;;;4.23;1.40;;;6.80;1.00;;;;;;5074149;28;20460;-86
2022/11/21 04:26:27;;;;;;;11.53;1.97;;;6.90;1.00;;;;;;5077604;28;20477;-86
2022/11/21 04:29:20;;;;;;;7.03;1.57;;;6.90;1.00;;;;;;5077137;28;20924;-87
2022/11/21 04:32:27;;;;;;;9.00;1.47;;;6.90;1.00;;;;;;5086778;28;20787;-86
2022/11/21 04:34:57;;;;;;;12.33;1.30;;;6.90;1.00;;;;;;5075327;28;20429;-86
2022/11/21 04:37:27;;;;;;;12.30;1.40;;;6.90;1.00;;;;;;5076490;28;20986;-86
2022/11/21 04:40:14;;;;;;;5.13;1.10;;;6.90;1.00;;;;;;5086908;28;20539;-86
2022/11/21 04:43:26;;;;;;;5.40;1.53;;;6.90;1.00;;;;;;5082461;28;20421;-85
2022/11/21 04:46:09;;;;;;;3.13;1.20;;;6.90;1.00;;;;;;5077144;28;20456;-85
2022/11/21 04:48:56;;;;;;;3.83;1.50;;;6.90;1.00;;;;;;5079454;28;20444;-85
2022/11/21 04:51:56;;;;;;;4.73;0.93;;;6.90;1.00;;;;;;5084557;28;20425;-85
2022/11/21 04:57:57;;;;;;;6.20;1.53;;;6.90;1.00;;;;;;5074736;28;20834;-86
2022/11/21 05:00:23;;;;;;;2.33;1.10;;;7.00;1.00;;;;;;5078266;28;20433;-85
2022/11/21 05:02:49;;;;;;;4.47;1.10;;;7.00;1.00;;;;;;5077109;28;20447;-80
2022/11/21 05:05:15;;;;;;;9.53;1.67;;;7.00;1.00;;;;;;5083746;28;20178;-78
2022/11/21 05:07:41;;;;;;;5.60;1.17;;;7.00;1.00;;;;;;5090025;28;20185;-75
2022/11/21 05:10:21;;;;;;;3.70;0.93;;;7.10;1.00;;;;;;5082850;28;20178;-75
2022/11/21 05:15:31;;;;;;;2.10;1.37;;;7.10;1.00;;;;;;5074171;28;20779;-75
2022/11/21 05:18:03;;;;;;;9.43;1.20;;;7.40;1.00;;;;;;5075783;28;20457;-75
2022/11/21 05:20:33;;;;;;;2.50;0.70;;;7.10;1.00;;;;;;5074357;28;20171;-75
2022/11/21 05:23:03;;;;;;;6.33;1.23;;;7.00;1.00;;;;;;5079454;28;20927;-75
2022/11/21 05:25:29;;;;;;;6.70;1.07;;;7.10;1.00;;;;;;5073764;28;20440;-78
2022/11/21 05:27:55;;;;;;;2.60;0.90;;;7.10;1.00;;;;;;5075282;28;20425;-76
2022/11/21 05:30:27;;;;;;;2.77;1.13;;;7.10;1.00;;;;;;5084774;28;20580;-75
2022/11/21 05:33:04;;;;;;;3.67;0.80;;;7.10;1.00;;;;;;5078490;28;20550;-76
2022/11/21 05:35:30;;;;;;;2.13;0.80;;;7.10;1.00;;;;;;5084312;28;20417;-75
2022/11/21 05:37:58;;;;;;;0.60;0.60;;;7.10;1.00;;;;;;5087821;28;20528;-75
2022/11/21 05:40:27;;;;;;;5.43;1.03;;;7.20;1.00;;;;;;5076729;28;20190;-76
2022/11/21 05:46:45;;;;;;;1.83;0.90;;;7.10;1.00;;;;;;5085960;28;20407;-84
2022/11/21 05:49:39;;;;;;;4.37;1.63;;;7.00;1.00;;;;;;5077938;28;20512;-84
2022/11/21 05:55:51;;;;;;;3.33;0.93;;;6.80;1.00;;;;;;5093544;28;20360;-84
2022/11/21 05:58:21;;;;;;;3.23;1.27;;;6.80;1.00;;;;;;5086607;28;20528;-75
2022/11/21 06:00:47;;;;;;;8.60;0.93;;;6.80;1.00;;;;;;5074016;28;20471;-75
2022/11/21 06:03:29;;;;;;;3.20;1.10;;;6.80;1.00;;;;;;5092322;28;20926;-77
2022/11/21 06:06:32;;;;;;;4.47;1.23;;;6.90;1.00;;;;;;5094984;28;20656;-77
2022/11/21 06:08:58;;;;;;;3.90;1.13;;;6.80;1.00;;;;;;5076884;28;20428;-77
2022/11/21 06:11:24;;;;;;;6.17;1.10;;;6.90;1.00;;;;;;5089554;28;20404;-77
2022/11/21 06:13:52;;;;;;;7.10;1.50;;;6.90;1.00;;;;;;5097328;28;20389;-78
2022/11/21 06:16:19;;;;;;;7.50;0.80;;;6.90;1.00;;;;;;5079818;28;20465;-77
2022/11/21 06:18:47;;;;;;;4.87;1.10;;;6.80;1.00;;;;;;5078819;28;20381;-77
2022/11/21 06:21:45;;;;;;;2.00;1.00;;;6.90;1.00;;;;;;5077214;28;20397;-77
2022/11/21 06:24:11;;;;;;;6.23;1.87;;;6.70;1.00;;;;;;5089076;28;20399;-77
2022/11/21 06:26:36;;;;;;;4.53;1.23;;;6.60;1.00;;;;;;5083861;28;20413;-77
2022/11/21 06:29:10;;;;;;;4.97;1.00;;;6.50;1.00;;;;;;5089062;28;20477;-77
2022/11/21 06:31:45;;;;;;;3.70;1.33;;;6.40;1.00;;;;;;5082160;28;20175;-78
2022/11/21 06:34:15;;;;;;;1.77;1.10;;;6.30;1.00;;;;;;5085245;28;20454;-77
2022/11/21 06:36:43;;;;;;;1.27;0.80;;;6.30;1.00;;;;;;5077230;28;21188;-77
2022/11/21 06:39:09;;;;;;;3.50;1.50;;;6.20;1.00;;;;;;5084416;28;20425;-77
2022/11/21 06:41:39;;;;;;;1.43;0.80;;;6.20;1.00;;;;;;5078479;28;20416;-76
2022/11/21 06:44:09;;;;;;;1.77;1.17;;;6.10;1.00;;;;;;5080677;28;20408;-77
2022/11/21 06:46:39;;;;;;;5.00;1.27;;;6.00;1.00;;;;;;5082632;28;20417;-77
2022/11/21 06:49:15;;;;;;;5.33;1.37;;;6.00;1.00;;;;;;5076739;28;20421;-77
2022/11/21 06:51:41;;;;;;;4.90;1.20;;;6.00;1.00;;;;;;5076789;28;20416;-77
2022/11/21 06:54:15;;;;;;;2.00;1.30;;;6.00;1.00;;;;;;5074694;28;20838;-77
2022/11/21 06:56:58;;;;;;;3.37;1.53;;;6.00;1.00;;;;;;5076253;28;20232;-77
2022/11/21 06:59:33;;;;;;;7.03;1.90;;;6.00;1.00;;;;;;5088644;28;20442;-77
2022/11/21 07:01:59;;;;;;;8.17;1.40;;;6.00;2.20;;;;;;5093634;28;20428;-77
2022/11/21 07:04:24;;;;;;;8.30;1.50;;;6.10;2.40;;;;;;5080762;28;20413;-77
2022/11/21 07:06:57;;;;;;;6.23;1.30;;;6.20;2.40;;;;;;5079114;28;20494;-77
2022/11/21 07:09:27;;;;;;;2.57;1.70;;;6.20;3.90;;;;;;5083472;28;20178;-77
2022/11/21 07:13:20;;;;;;;4.90;1.60;;;6.30;2.80;;;;;;5078780;28;20433;-77
2022/11/21 07:14:51;;;;;;;2.40;1.00;;;6.40;1.00;;;;;;5088977;28;20424;-77
2022/11/21 07:20:58;;;;;;;1.53;1.30;;;6.50;1.00;;;;;;5076876;28;20975;-87
2022/11/21 07:23:24;;;;;;;1.87;1.10;;;6.60;1.00;;;;;;5085166;28;21377;-87
2022/11/21 07:26:32;;;;;;;2.77;1.50;;;6.60;1.00;;;;;;5078570;28;20832;-82
2022/11/21 07:29:45;;;;;;;3.20;2.00;;;6.70;1.00;;;;;;5090338;28;20175;-88
2022/11/21 07:32:56;;;;;;;3.23;1.53;;;6.80;1.00;;;;;;5075409;28;20520;-87
2022/11/21 07:36:03;;;;;;;4.03;1.33;;;6.80;1.00;;;;;;5083217;28;20467;-88
2022/11/21 07:38:40;;;;;;;4.03;1.30;;;7.00;1.00;;;;;;5089519;28;20428;-87
2022/11/21 07:41:27;;;;;;;1.57;1.03;;;7.00;1.00;;;;;;5078120;28;20424;-85
2022/11/21 07:44:09;;;;;;;1.57;1.13;;;7.10;1.00;;;;;;5087113;28;20427;-89
2022/11/21 07:47:09;;;;;;;1.67;1.03;;;7.20;1.00;;;;;;5087912;28;20898;-89
2022/11/21 07:56:18;;;;;;;4.37;1.27;;;7.40;1.00;;;;;;5089045;28;20578;-89
2022/11/21 07:58:57;;;;;;;1.67;1.10;;;7.50;1.00;;;;;;5087509;28;20948;-89
2022/11/21 08:05:32;;;;;;;2.87;1.53;;;7.60;1.00;;;;;;5076502;28;20431;-89
2022/11/21 08:08:27;;;;;;;4.67;1.30;;;7.70;1.00;;;;;;5085498;28;20436;-89
2022/11/21 08:11:04;;;;;;;1.30;1.20;;;7.70;1.00;;;;;;5083676;28;20481;-88
2022/11/21 08:23:52;;;;;;;6.67;1.80;;;7.70;1.00;;;;;;5089388;28;20392;-88
2022/11/21 08:27:08;;;;;;;3.43;1.47;;;7.70;1.00;;;;;;5089233;28;20440;-88
2022/11/21 08:30:26;;;;;;;1.87;1.10;;;7.80;1.00;;;;;;5078755;28;20422;-86
2022/11/21 08:36:15;;;;;;;3.43;1.40;;;8.00;1.00;;;;;;5088084;28;20520;-86
2022/11/21 08:38:45;;;;;;;2.40;1.30;;;7.90;1.00;;;;;;5085216;28;20453;-86
2022/11/21 08:45:21;;;;;;;2.53;1.20;;;8.00;1.00;;;;;;5083608;28;20451;-87
2022/11/21 08:48:21;;;;;;;1.43;0.90;;;8.00;1.00;;;;;;5095687;28;20518;-85
2022/11/21 08:50:57;;;;;;;1.53;1.00;;;8.00;1.00;;;;;;5073604;28;20807;-86
2022/11/21 08:54:03;;;;;;;1.17;0.90;;;8.10;1.00;;;;;;5082378;28;20916;-86
2022/11/21 08:56:57;;;;;;;5.33;1.30;;;8.10;1.00;;;;;;5078668;28;20456;-85
2022/11/21 08:59:33;;;;;;;3.97;1.17;;;8.10;1.00;;;;;;5075843;28;20429;-87
2022/11/21 09:02:27;;;;;;;4.33;1.00;;;8.20;1.00;;;;;;5096037;28;20408;-86
2022/11/21 09:08:14;;;;;;;2.57;1.00;;;8.30;1.00;;;;;;5075044;28;20455;-86
2022/11/21 09:18:06;;;;;;;3.47;1.03;;;8.20;1.00;;;;;;5089770;28;20551;-87
2022/11/21 09:20:38;;;;;;;2.07;1.40;;;8.10;1.00;;;;;;5086212;28;20431;-86
2022/11/21 09:23:27;;;;;;;3.30;1.20;;;8.10;1.00;;;;;;5075855;28;20844;-86
2022/11/21 09:26:27;;;;;;;1.07;1.07;;;8.10;1.00;;;;;;5079605;28;20554;-86
2022/11/21 09:39:16;;;;;;;1.30;1.20;;;8.40;1.00;;;;;;5080454;28;20522;-86
2022/11/21 09:42:03;;;;;;;18.57;1.63;;;8.50;1.00;;;;;;5078410;28;20448;-85
2022/11/21 09:45:03;;;;;;;1.23;1.13;;;8.50;1.00;;;;;;5081299;28;20823;-86
2022/11/21 09:47:49;;;;;;;1.97;1.30;;;8.60;1.00;;;;;;5073102;28;20425;-86
2022/11/21 09:50:20;;;;;;;1.00;1.00;;;8.70;1.00;;;;;;5081255;28;20805;-86
2022/11/21 09:56:29;;;;;;;1.80;1.40;;;8.60;1.00;;;;;;5080632;28;20932;-86
2022/11/21 09:59:27;;;;;;;1.50;1.40;;;8.70;1.00;;;;;;5080135;28;20502;-86
2022/11/21 10:09:05;;;;;;;3.90;1.33;;;9.10;1.00;;;;;;5082341;28;20836;-86
2022/11/21 10:15:14;;;;;;;6.23;1.37;;;9.40;1.00;;;;;;5084353;28;20446;-89
2022/11/21 10:18:27;;;;;;;6.33;1.43;;;9.50;1.00;;;;;;5077284;28;20811;-89
2022/11/21 10:21:39;;;;;;;4.00;0.97;;;9.50;1.00;;;;;;5079688;28;20893;-87
2022/11/21 10:28:09;;;;;;;5.43;1.57;;;9.40;1.00;;;;;;5081479;28;20412;-87
2022/11/21 10:30:43;;;;;;;2.73;1.30;;;9.10;1.00;;;;;;5073971;28;20409;-86
2022/11/21 10:33:31;;;;;;;1.90;0.97;;;9.30;1.00;;;;;;5088031;28;20447;-86
2022/11/21 10:36:04;;;;;;;2.20;1.00;;;9.40;1.00;;;;;;5067966;28;20512;-86
2022/11/21 10:38:35;;;;;;;1.70;1.37;;;9.50;1.00;;;;;;5085870;28;20421;-86
2022/11/21 10:41:51;;;;;;;4.87;1.20;;;9.50;1.00;;;;;;5085300;28;20491;-86
2022/11/21 10:47:32;;;;;;;2.73;1.10;;;9.80;1.00;;;;;;5084481;28;20407;-86
2022/11/21 10:57:18;;;;;;;3.00;0.90;;;9.90;1.00;;;;;;5083456;28;20467;-86
2022/11/21 11:00:15;;;;;;;3.77;1.03;;;9.90;1.00;;;;;;4994369;28;20431;-85
2022/11/21 11:03:15;;;;;;;7.20;1.50;;;9.70;1.00;;;;;;4999023;28;20430;-86
2022/11/21 11:05:57;;;;;;;4.23;1.10;;;9.70;1.00;;;;;;4921532;29;20455;-86
2022/11/21 11:12:18;;;;;;;1.67;1.10;;;10.00;1.00;;;;;;4930462;29;20434;-84
2022/11/21 11:14:54;;;;;;;1.60;1.10;;;9.90;1.00;;;;;;4919310;29;20454;-84
2022/11/21 11:17:31;;;;;;;1.70;1.13;;;9.80;1.00;;;;;;4920612;29;20894;-83
2022/11/21 11:23:27;;;;;;;3.83;0.90;;;10.10;1.00;;;;;;4936336;29;20438;-83
2022/11/21 11:26:27;;;;;;;4.37;1.27;;;10.20;1.00;;;;;;4936712;29;20419;-83
2022/11/21 11:36:14;;;;;;;6.97;1.10;;;10.40;1.00;;;;;;5013399;28;20426;-85
2022/11/21 11:38:58;;;;;;;1.13;1.03;;;10.20;1.00;;;;;;4999121;28;20812;-85
2022/11/21 11:48:11;;;;;;;4.93;0.83;;;10.60;1.00;;;;;;5080796;28;20422;-85
2022/11/21 11:50:54;;;;;;;2.10;0.90;;;10.60;1.00;;;;;;5078015;28;20420;-85
2022/11/21 11:53:54;;;;;;;2.27;1.00;;;10.60;1.00;;;;;;5083874;28;20425;-85
2022/11/21 11:56:52;;;;;;;3.07;1.10;;;10.70;1.00;;;;;;5076040;28;20426;-85
2022/11/21 12:00:01;;;;;;;1.33;1.13;;;10.80;1.00;;;;;;5073770;28;20414;-85
2022/11/21 12:02:52;;;;;;;1.60;0.90;;;10.60;1.00;;;;;;5078154;28;20487;-84
2022/11/21 12:05:27;;;;;;;2.00;1.10;;;10.60;1.00;;;;;;5081531;28;20625;-84
2022/11/21 12:08:22;;;;;;;2.87;0.83;;;10.50;1.00;;;;;;5092105;28;20435;-84
2022/11/21 12:13:56;;;;;;;5.70;1.10;;;10.30;1.00;;;;;;5095654;28;20453;-85
2022/11/21 12:16:25;;;;;;;1.80;0.87;;;10.10;1.00;;;;;;5079908;28;20811;-86
2022/11/21 12:19:06;;;;;;;2.60;0.83;;;10.10;1.00;;;;;;5070712;28;20438;-89
2022/11/21 12:22:22;;;;;;;2.67;1.00;;;10.20;1.00;;;;;;5089627;28;20424;-89
2022/11/21 12:24:52;;;;;;;0.80;0.70;;;10.40;1.00;;;;;;5077645;28;20580;-88
2022/11/21 12:27:41;;;;;;;4.40;1.53;;;10.60;1.00;;;;;;5073126;28;20449;-88
2022/11/21 12:30:52;;;;;;;4.20;1.17;;;10.60;1.00;;;;;;5083216;28;20404;-88
2022/11/21 12:33:22;;;;;;;4.17;1.00;;;10.60;1.00;;;;;;5088649;28;20421;-89
2022/11/21 12:36:12;;;;;;;6.43;1.07;;;10.70;1.00;;;;;;5076617;28;20420;-88
2022/11/21 12:39:10;;;;;;;3.13;1.20;;;10.60;1.00;;;;;;5089773;28;20493;-88
2022/11/21 12:45:18;;;;;;;1.93;0.90;;;10.40;1.00;;;;;;5084996;28;20532;-88
2022/11/21 12:54:52;;;;;;;3.57;0.73;;;10.30;1.00;;;;;;5079522;28;20909;-83
2022/11/21 12:57:45;;;;;;;3.33;1.27;;;10.10;1.00;;;;;;5080331;28;20637;-83
2022/11/21 13:00:28;;;;;;;1.57;0.80;;;10.10;1.00;;;;;;5069831;28;20508;-84
2022/11/21 13:06:21;;;;;;;2.80;1.30;;;10.20;1.00;;;;;;5085874;28;20756;-85
2022/11/21 13:09:34;;;;;;;3.20;1.10;;;10.10;1.00;;;;;;5078843;28;20440;-86
2022/11/21 13:12:40;;;;;;;0.83;0.80;;;10.10;1.00;;;;;;5091585;28;20411;-86
2022/11/21 13:21:53;;;;;;;5.17;0.97;;;10.30;1.00;;;;;;5079709;28;20419;-86
2022/11/21 13:25:10;;;;;;;2.97;0.77;;;10.20;1.00;;;;;;5054167;28;1114518;-85
2022/11/21 13:31:27;;;;;;;3.80;1.00;;;9.90;1.00;;;;;;5110570;28;20422;-87
2022/11/21 13:44:33;;;;;;;4.53;1.33;;;9.30;1.00;;;;;;5077742;28;20458;-88
2022/11/21 13:51:00;;;;;;;2.77;0.80;;;9.10;1.00;;;;;;5080457;28;20902;-86
2022/11/21 13:53:53;;;;;;;2.30;0.97;;;9.10;1.00;;;;;;5011722;28;20435;-83
2022/11/21 13:59:59;;;;;;;6.93;1.10;;;9.20;1.00;;;;;;5007823;28;20415;-86
2022/11/21 14:02:52;;;;;;;2.00;0.90;;;9.30;1.00;;;;;;4985323;28;20433;-84
2022/11/21 14:08:39;;;;;;;4.50;1.00;;;9.50;1.00;;;;;;4992143;28;20415;-85
2022/11/21 14:11:40;;;;;;;3.37;1.10;;;9.50;1.00;;;;;;4993050;28;20846;-85
2022/11/21 14:14:52;;;;;;;4.73;1.10;;;9.50;1.00;;;;;;5011643;28;20246;-84
2022/11/21 14:21:28;;;;;;;1.43;0.80;;;9.70;1.00;;;;;;5004806;28;20899;-84
2022/11/21 14:34:46;;;;;;;2.50;1.00;;;10.10;1.00;;;;;;5083658;28;20770;-86
2022/11/21 14:40:34;;;;;;;4.20;1.00;;;9.90;1.00;;;;;;5081149;28;20822;-85
2022/11/21 14:43:00;;;;;;;4.73;1.17;;;9.80;1.00;;;;;;5086829;28;20479;-84
2022/11/21 14:45:35;;;;;;;0.93;0.80;;;9.70;1.00;;;;;;5090632;28;20186;-84
2022/11/21 14:48:11;;;;;;;0.90;0.73;;;9.60;1.00;;;;;;5075901;28;20466;-84
2022/11/21 14:50:36;;;;;;;2.70;1.20;;;9.50;1.00;;;;;;5092515;28;20889;-84
2022/11/21 14:53:04;;;;;;;2.00;1.13;;;9.30;1.00;;;;;;5092307;28;20508;-84
2022/11/21 14:59:01;;;;;;;1.83;1.20;;;9.00;1.00;;;;;;5081895;28;20404;-84
2022/11/21 15:01:40;;;;;;;3.27;1.43;;;8.90;1.00;;;;;;5095172;28;20449;-85
2022/11/21 15:04:14;;;;;;;1.70;1.03;;;8.70;1.00;;;;;;5086695;28;20408;-88
2022/11/21 15:06:58;;;;;;;4.10;1.27;;;8.60;1.00;;;;;;5084407;28;20464;-91
2022/11/21 15:09:30;;;;;;;12.37;1.87;;;8.40;1.00;;;;;;5079751;28;20486;-83
2022/11/21 15:12:06;;;;;;;4.20;1.20;;;8.30;1.00;;;;;;5075636;28;20904;-77
2022/11/21 15:15:17;;;;;;;3.93;1.13;;;8.20;1.00;;;;;;5076647;28;20389;-83
2022/11/21 15:17:43;;;;;;;4.27;1.20;;;8.00;1.00;;;;;;5076346;28;20445;-86
2022/11/21 15:20:19;;;;;;;2.80;1.20;;;7.80;1.00;;;;;;5081372;28;20950;-83
2022/11/21 15:22:46;;;;;;;4.90;1.30;;;7.70;1.00;;;;;;5104682;28;20444;-80
2022/11/21 15:25:20;;;;;;;2.60;1.00;;;7.50;1.00;;;;;;5085660;28;20401;-79
2022/11/21 15:28:19;;;;;;;3.80;1.47;;;7.40;1.00;;;;;;5087428;28;20499;-79
2022/11/21 15:31:40;;;;;;;4.80;1.10;;;7.30;1.00;;;;;;5006650;28;20548;-81
2022/11/21 15:34:26;;;;;;;4.30;1.43;;;7.00;1.00;;;;;;4996369;28;20463;-79
2022/11/21 15:37:16;;;;;;;5.60;1.43;;;6.90;1.00;;;;;;5013019;28;20460;-80
2022/11/21 15:39:59;;;;;;;4.07;1.37;;;6.70;1.00;;;;;;4979859;28;20522;-80
2022/11/21 15:42:40;;;;;;;21.10;6.40;;;6.60;1.00;;;;;;5002844;28;20783;-79
2022/11/21 15:45:34;;;;;;;3.73;1.10;;;6.50;1.00;;;;;;5011728;28;20474;-80
2022/11/21 15:48:10;;;;;;;7.20;1.70;;;6.40;1.00;;;;;;5012374;28;20452;-75
2022/11/21 15:50:40;;;;;;;24.33;8.13;;;6.30;1.00;;;;;;5013213;28;20436;-76
2022/11/21 15:53:17;;;;;;;99.30;32.27;;;6.20;1.00;;;;;;5013690;28;20828;-76
2022/11/21 15:55:43;;;;;;;4.70;1.67;;;6.10;1.00;;;;;;4997141;28;20527;-75
2022/11/21 15:58:22;;;;;;;9.77;1.63;;;6.10;1.00;;;;;;5009415;28;20539;-76
2022/11/21 16:00:53;;;;;;;6.07;1.93;;;6.00;1.00;;;;;;4994189;28;20186;-75
2022/11/21 16:03:28;;;;;;;5.00;1.90;;;5.90;1.00;;;;;;4994756;28;20453;-76
2022/11/21 16:06:33;;;;;;;5.87;2.20;;;5.90;1.00;;;;;;5032947;28;20413;-75
2022/11/21 16:08:59;;;;;;;5.50;1.80;;;5.80;1.00;;;;;;5082177;28;20468;-77
2022/11/21 16:11:36;;;;;;;5.60;2.70;;;5.70;1.00;;;;;;5084631;28;20918;-77
2022/11/21 16:14:05;;;;;;;3.93;1.60;;;5.70;1.00;;;;;;5095595;28;20392;-76
2022/11/21 16:16:37;;;;;;;7.60;1.83;;;5.70;1.00;;;;;;5091220;28;20417;-77
2022/11/21 16:19:05;;;;;;;3.53;1.70;;;5.70;1.00;;;;;;5084974;28;20475;-77
2022/11/21 16:21:41;;;;;;;4.50;1.87;;;5.60;1.00;;;;;;5087574;28;20404;-77
2022/11/21 16:24:16;;;;;;;7.27;2.20;;;5.50;1.00;;;;;;5074282;28;20439;-77
2022/11/21 16:26:54;;;;;;;6.40;1.70;;;5.50;1.00;;;;;;5088364;28;20461;-79
2022/11/21 16:29:23;;;;;;;10.03;2.27;;;5.50;1.00;;;;;;5093096;28;20425;-77
2022/11/21 16:31:54;;;;;;;4.17;2.17;;;5.40;1.00;;;;;;5085495;28;20412;-77
2022/11/21 16:34:22;;;;;;;6.20;2.93;;;5.40;1.00;;;;;;5076727;28;20432;-77
2022/11/21 16:36:58;;;;;;;5.80;2.80;;;5.40;1.00;;;;;;5091372;28;20987;-77
2022/11/21 16:39:50;;;;;;;7.50;2.37;;;5.40;1.00;;;;;;5085028;28;20404;-77
2022/11/21 16:42:18;;;;;;;3.07;2.60;;;5.50;1.00;;;;;;5092690;28;20788;-77
2022/11/21 16:44:44;;;;;;;8.83;2.20;;;5.50;1.00;;;;;;5088827;28;20423;-76
2022/11/21 16:47:12;;;;;;;5.03;2.03;;;5.50;1.00;;;;;;5074185;28;20793;-77
2022/11/21 16:49:41;;;;;;;7.90;2.70;;;5.50;1.00;;;;;;5077169;28;20987;-80
2022/11/21 16:52:34;;;;;;;5.00;2.87;;;5.50;1.00;;;;;;5091133;28;20435;-80
2022/11/21 16:55:05;;;;;;;9.57;2.57;;;5.50;1.00;;;;;;5092894;28;20746;-80
2022/11/21 16:57:46;;;;;;;10.23;2.50;;;5.40;1.00;;;;;;5080274;28;20465;-80
2022/11/21 17:00:23;;;;;;;7.63;2.80;;;5.50;1.00;;;;;;5081841;28;20929;-82
2022/11/21 17:02:53;;;;;;;6.00;2.73;;;5.40;1.00;;;;;;5096103;28;21020;-82
2022/11/21 17:05:19;;;;;;;5.23;3.10;;;5.50;1.00;;;;;;5084729;28;20417;-81
2022/11/21 17:07:47;;;;;;;6.03;2.90;;;5.50;1.00;;;;;;5086237;28;20452;-81
2022/11/21 17:10:16;;;;;;;23.23;3.93;;;5.60;1.00;;;;;;5073736;28;20425;-82
2022/11/21 17:12:52;;;;;;;10.47;2.90;;;5.50;1.00;;;;;;5074103;28;20392;-81
2022/11/21 17:15:34;;;;;;;2.20;2.00;;;5.50;1.00;;;;;;5074645;28;20495;-83
2022/11/21 17:18:22;;;;;;;5.53;1.93;;;5.50;1.00;;;;;;5084822;28;20459;-87
2022/11/21 17:21:06;;;;;;;8.57;2.63;;;5.50;1.00;;;;;;5074553;28;20404;-86
2022/11/21 17:23:52;;;;;;;4.63;2.27;;;5.50;1.00;;;;;;5074959;28;20436;-86
2022/11/21 17:26:52;;;;;;;3.77;2.20;;;5.50;1.00;;;;;;5082127;28;20428;-86
2022/11/21 17:29:23;;;;;;;4.07;2.43;;;5.50;1.00;;;;;;5076068;28;20417;-86
2022/11/21 17:31:52;;;;;;;8.23;2.73;;;5.50;1.00;;;;;;5085198;28;20408;-87
2022/11/21 17:34:22;;;;;;;6.50;3.27;;;5.50;1.00;;;;;;5082178;28;20781;-83
2022/11/21 17:36:53;;;;;;;7.43;2.83;;;5.60;1.00;;;;;;5092364;28;20453;-82
2022/11/21 17:39:29;;;;;;;5.83;3.60;;;5.80;1.00;;;;;;5080263;28;20490;-85
2022/11/21 17:41:54;;;;;;;7.70;3.13;;;5.60;1.00;;;;;;5076904;28;20463;-87
2022/11/21 17:44:23;;;;;;;5.77;2.73;;;5.70;1.00;;;;;;5075818;28;20416;-85
2022/11/21 17:47:04;;;;;;;7.33;2.50;;;5.70;1.00;;;;;;5089287;28;20187;-87
2022/11/21 17:49:52;;;;;;;7.10;3.50;;;5.80;1.00;;;;;;5084172;28;20428;-88
2022/11/21 17:52:23;;;;;;;9.13;3.27;;;5.80;1.00;;;;;;5092196;28;20459;-87
2022/11/21 17:54:52;;;;;;;9.53;3.30;;;5.90;1.00;;;;;;5084031;28;20436;-85
2022/11/21 17:57:23;;;;;;;8.30;3.20;;;5.90;1.00;;;;;;5078392;28;20452;-85
2022/11/21 17:59:52;;;;;;;4.10;2.37;;;5.90;1.00;;;;;;5100829;28;20432;-85
2022/11/21 18:02:22;;;;;;;7.43;3.03;;;5.90;1.00;;;;;;5078306;28;20872;-84
2022/11/21 18:04:52;;;;;;;6.63;3.43;;;6.00;1.00;;;;;;5078222;28;20409;-85
2022/11/21 18:07:22;;;;;;;3.80;2.40;;;6.00;1.00;;;;;;5079419;28;20789;-84
2022/11/21 18:09:53;;;;;;;7.17;2.87;;;6.00;1.00;;;;;;5081320;28;20425;-85
2022/11/21 18:12:22;;;;;;;8.47;3.07;;;6.00;1.00;;;;;;5076093;28;20943;-87
2022/11/21 18:18:23;;;;;;;6.10;2.77;;;6.10;1.00;;;;;;5086094;28;20542;-88
2022/11/21 18:20:52;;;;;;;6.33;3.00;;;6.10;1.00;;;;;;5089574;28;20463;-87
2022/11/21 18:23:18;;;;;;;18.00;3.17;;;6.10;1.00;;;;;;5077399;28;21028;-87
2022/11/21 18:25:52;;;;;;;7.07;2.67;;;6.10;1.00;;;;;;5080865;28;20404;-87
2022/11/21 18:32:34;;;;;;;7.37;2.70;;;6.10;1.00;;;;;;5084677;28;20436;-87
2022/11/21 18:39:10;;;;;;;5.73;3.03;;;6.20;1.00;;;;;;5089470;28;20464;-86
2022/11/21 18:44:58;;;;;;;4.30;2.70;;;6.30;1.00;;;;;;5076437;28;20490;-84